createdAt,value
2023-03-15T00:00:59.679Z,65.60
2023-03-15T00:04:06.089Z,65.86
2023-03-15T00:07:08.837Z,65.92
2023-03-15T00:10:12.618Z,65.57
2023-03-15T00:13:16.479Z,65.57
2023-03-15T00:16:19.075Z,65.66
2023-03-15T00:19:22.997Z,65.64
2023-03-15T00:22:26.046Z,65.63
2023-03-15T00:25:29.074Z,65.75
2023-03-15T00:28:31.713Z,65.63
2023-03-15T00:31:35.852Z,65.62
2023-03-15T00:34:39.971Z,65.41
2023-03-15T00:37:42.404Z,65.55
2023-03-15T00:40:44.910Z,65.54
2023-03-15T00:43:51.138Z,65.47
2023-03-15T00:46:53.972Z,65.59
2023-03-15T00:49:58.023Z,65.53
2023-03-15T00:53:01.303Z,65.48
2023-03-15T00:56:13.855Z,65.54
2023-03-15T00:59:16.443Z,65.44
2023-03-15T01:05:41.420Z,65.57
2023-03-15T01:08:49.513Z,65.22
2023-03-15T01:11:52.272Z,65.41
2023-03-15T01:14:54.979Z,65.53
2023-03-15T01:17:57.776Z,65.55
2023-03-15T01:21:02.315Z,65.45
2023-03-15T01:24:05.456Z,65.21
2023-03-15T01:27:07.888Z,65.52
2023-03-15T01:30:11.619Z,65.32
2023-03-15T01:33:14.135Z,65.85
2023-03-15T01:36:18.647Z,65.36
2023-03-15T01:39:21.359Z,65.36
2023-03-15T01:42:23.919Z,65.21
2023-03-15T01:45:59.220Z,65.57
2023-03-15T01:49:06.767Z,65.42
2023-03-15T01:52:15.428Z,65.80
2023-03-15T01:55:21.668Z,65.51
2023-03-15T01:58:26.874Z,65.38
2023-03-15T02:01:31.201Z,65.49
2023-03-15T02:04:40.526Z,65.15
2023-03-15T02:07:49.790Z,65.43
2023-03-15T02:10:54.604Z,65.42
2023-03-15T02:13:58.742Z,65.27
2023-03-15T02:17:01.166Z,65.51
2023-03-15T02:20:13.370Z,65.43
2023-03-15T02:23:19.897Z,65.21
2023-03-15T02:26:30.657Z,65.22
2023-03-15T02:29:34.684Z,65.53
2023-03-15T02:32:37.216Z,65.30
2023-03-15T02:35:39.855Z,65.08
2023-03-15T02:38:42.283Z,65.21
2023-03-15T02:41:47.857Z,65.12
2023-03-15T02:44:52.925Z,65.39
2023-03-15T02:47:56.195Z,65.06
2023-03-15T02:50:58.720Z,65.45
2023-03-15T02:54:01.368Z,65.42
2023-03-15T02:57:05.647Z,65.42
2023-03-15T03:00:14.448Z,65.17
2023-03-15T03:03:16.981Z,65.09
2023-03-15T03:06:19.712Z,64.93
2023-03-15T03:09:22.322Z,65.08
2023-03-15T03:12:24.848Z,65.06
2023-03-15T03:15:28.785Z,64.65
2023-03-15T03:18:35.672Z,64.75
2023-03-15T03:21:38.121Z,64.96
2023-03-15T03:24:46.316Z,65.04
2023-03-15T03:27:48.901Z,64.97
2023-03-15T03:30:52.829Z,64.77
2023-03-15T03:33:57.224Z,64.67
2023-03-15T03:37:01.476Z,64.64
2023-03-15T03:40:07.718Z,64.81
2023-03-15T03:43:10.858Z,64.64
2023-03-15T03:46:14.742Z,64.68
2023-03-15T03:49:17.253Z,64.68
2023-03-15T03:52:19.776Z,64.47
2023-03-15T03:55:25.174Z,64.34
2023-03-15T03:58:27.764Z,64.53
2023-03-15T04:01:31.671Z,64.46
2023-03-15T04:04:34.401Z,64.73
2023-03-15T04:07:37.156Z,64.55
2023-03-15T04:10:39.862Z,64.33
2023-03-15T04:13:42.451Z,64.32
2023-03-15T04:16:46.271Z,64.37
2023-03-15T04:19:48.785Z,64.34
2023-03-15T04:22:51.217Z,64.40
2023-03-15T04:25:55.140Z,64.06
2023-03-15T04:28:59.229Z,64.44
2023-03-15T04:32:03.208Z,64.17
2023-03-15T04:35:06.831Z,64.15
2023-03-15T04:38:10.114Z,64.09
2023-03-15T04:41:12.649Z,64.24
2023-03-15T04:44:16.330Z,63.98
2023-03-15T04:47:20.641Z,63.91
2023-03-15T04:50:23.884Z,63.90
2023-03-15T04:53:26.724Z,64.29
2023-03-15T04:56:30.077Z,64.26
2023-03-15T04:59:32.958Z,64.57
2023-03-15T05:02:40.003Z,64.46
2023-03-15T05:05:42.920Z,64.62
2023-03-15T05:08:47.240Z,64.63
2023-03-15T05:11:50.142Z,64.79
2023-03-15T05:14:54.316Z,64.58
2023-03-15T05:18:06.658Z,64.88
2023-03-15T05:21:11.280Z,64.87
2023-03-15T05:24:17.527Z,64.78
2023-03-15T05:27:21.707Z,64.84
2023-03-15T05:30:24.575Z,64.89
2023-03-15T05:33:29.862Z,64.58
2023-03-15T05:36:33.774Z,64.77
2023-03-15T05:39:36.402Z,64.64
2023-03-15T05:42:38.977Z,64.80
2023-03-15T05:45:42.356Z,65.04
2023-03-15T05:48:48.508Z,64.52
2023-03-15T05:51:51.089Z,64.58
2023-03-15T05:54:53.578Z,64.53
2023-03-15T05:57:56.100Z,64.48
2023-03-15T06:04:45.932Z,64.53
2023-03-15T06:07:51.138Z,64.12
2023-03-15T06:10:53.999Z,64.10
2023-03-15T06:13:56.517Z,64.17
2023-03-15T06:17:01.345Z,64.40
2023-03-15T06:20:07.095Z,64.38
2023-03-15T06:23:09.908Z,64.17
2023-03-15T06:26:15.155Z,64.15
2023-03-15T06:29:18.321Z,64.32
2023-03-15T06:32:29.801Z,64.20
2023-03-15T06:35:34.157Z,64.33
2023-03-15T06:38:36.908Z,64.33
2023-03-15T06:41:40.042Z,64.12
2023-03-15T06:44:43.635Z,64.11
2023-03-15T06:47:46.118Z,64.19
2023-03-15T06:50:49.971Z,64.15
2023-03-15T06:53:52.661Z,64.24
2023-03-15T06:56:55.329Z,64.13
2023-03-15T06:59:57.884Z,64.29
2023-03-15T07:03:00.632Z,64.41
2023-03-15T07:06:05.483Z,64.44
2023-03-15T07:09:08.825Z,63.89
2023-03-15T07:12:12.158Z,63.97
2023-03-15T07:15:16.694Z,64.35
2023-03-15T07:18:19.829Z,64.38
2023-03-15T07:21:27.657Z,64.24
2023-03-15T07:24:30.830Z,64.22
2023-03-15T07:27:33.266Z,63.99
2023-03-15T07:30:35.869Z,64.11
2023-03-15T07:33:39.476Z,64.25
2023-03-15T07:36:43.312Z,64.16
2023-03-15T07:39:46.587Z,63.97
2023-03-15T07:42:49.132Z,64.10
2023-03-15T07:45:52.550Z,64.17
2023-03-15T07:48:55.068Z,63.92
2023-03-15T07:51:59.087Z,63.73
2023-03-15T07:55:01.551Z,63.89
2023-03-15T07:58:04.520Z,64.25
2023-03-15T08:01:12.791Z,64.17
2023-03-15T08:05:08.020Z,64.04
2023-03-15T08:08:24.605Z,64.11
2023-03-15T08:11:27.926Z,64.13
2023-03-15T08:19:10.237Z,64.26
2023-03-15T08:22:12.981Z,64.52
2023-03-15T08:25:20.425Z,64.29
2023-03-15T08:28:23.478Z,64.20
2023-03-15T08:31:27.000Z,64.51
2023-03-15T08:34:30.814Z,64.26
2023-03-15T08:37:34.465Z,64.14
2023-03-15T08:40:39.873Z,64.05
2023-03-15T08:43:42.472Z,64.32
2023-03-15T08:46:45.039Z,64.35
2023-03-15T08:49:47.684Z,64.29
2023-03-15T08:52:52.580Z,64.13
2023-03-15T08:55:56.525Z,64.07
2023-03-15T08:58:59.263Z,64.50
2023-03-15T09:02:02.210Z,64.14
2023-03-15T09:05:07.179Z,63.79
2023-03-15T09:08:10.004Z,64.18
2023-03-15T09:11:13.937Z,64.10
2023-03-15T09:14:16.748Z,64.20
2023-03-15T09:17:19.325Z,64.22
2023-03-15T09:20:28.056Z,64.00
2023-03-15T09:23:30.496Z,64.04
2023-03-15T09:26:34.401Z,63.94
2023-03-15T09:29:37.284Z,64.13
2023-03-15T09:32:39.906Z,64.07
2023-03-15T09:35:43.468Z,64.05
2023-03-15T09:38:47.827Z,63.97
2023-03-15T09:41:54.391Z,64.03
2023-03-15T09:45:05.927Z,64.25
2023-03-15T09:48:12.938Z,64.05
2023-03-15T09:51:21.848Z,64.09
2023-03-15T09:54:29.492Z,64.07
2023-03-15T09:57:42.078Z,64.13
2023-03-15T10:00:46.737Z,64.26
2023-03-15T10:03:51.000Z,63.86
2023-03-15T10:06:56.312Z,64.33
2023-03-15T10:09:59.173Z,64.01
2023-03-15T10:13:20.395Z,64.18
2023-03-15T10:16:33.365Z,64.04
2023-03-15T10:19:45.934Z,64.05
2023-03-15T10:22:53.501Z,64.14
2023-03-15T10:25:56.407Z,64.07
2023-03-15T10:29:03.480Z,64.23
2023-03-15T10:32:07.588Z,64.08
2023-03-15T10:35:16.445Z,64.15
2023-03-15T10:38:22.123Z,64.01
2023-03-15T10:41:39.240Z,64.55
2023-03-15T10:44:43.069Z,64.21
2023-03-15T10:47:57.624Z,64.17
2023-03-15T10:51:05.635Z,64.13
2023-03-15T10:54:13.373Z,64.00
2023-03-15T10:57:19.231Z,64.21
2023-03-15T11:00:31.293Z,64.22
2023-03-15T11:03:35.009Z,64.45
2023-03-15T11:06:41.068Z,64.39
2023-03-15T11:09:45.771Z,64.15
2023-03-15T11:12:48.326Z,64.02
2023-03-15T11:16:04.096Z,64.20
2023-03-15T11:19:16.154Z,64.36
2023-03-15T11:22:18.616Z,64.34
2023-03-15T11:25:25.078Z,64.38
2023-03-15T11:28:30.815Z,64.37
2023-03-15T11:31:35.098Z,64.25
2023-03-15T11:34:42.372Z,64.14
2023-03-15T11:37:50.001Z,64.17
2023-03-15T11:40:57.140Z,64.24
2023-03-15T11:44:07.472Z,64.21
2023-03-15T11:47:17.615Z,64.35
2023-03-15T11:50:20.705Z,64.47
2023-03-15T11:53:26.817Z,64.45
2023-03-15T11:56:45.794Z,64.06
2023-03-15T11:59:49.050Z,64.17
2023-03-15T12:02:56.264Z,64.24
2023-03-15T12:06:05.418Z,64.25
2023-03-15T12:09:57.597Z,64.39
2023-03-15T12:13:08.625Z,64.14
2023-03-15T12:16:14.443Z,64.13
2023-03-15T12:19:20.140Z,64.44
2023-03-15T12:22:24.032Z,64.28
2023-03-15T12:25:37.243Z,64.37
2023-03-15T12:28:51.427Z,64.34
2023-03-15T12:32:05.451Z,63.93
2023-03-15T12:35:17.020Z,64.13
2023-03-15T12:38:23.126Z,64.10
2023-03-15T12:41:38.269Z,64.13
2023-03-15T12:44:43.869Z,63.94
2023-03-15T12:47:47.232Z,64.04
2023-03-15T12:50:55.130Z,64.09
2023-03-15T12:53:58.873Z,64.20
2023-03-15T12:57:03.130Z,64.03
2023-03-15T13:00:11.968Z,64.29
2023-03-15T13:03:17.277Z,64.10
2023-03-15T13:06:35.945Z,64.22
2023-03-15T13:09:53.999Z,64.24
2023-03-15T13:13:03.126Z,63.94
2023-03-15T13:16:22.237Z,64.13
2023-03-15T13:19:28.452Z,64.43
2023-03-15T13:22:49.998Z,64.16
2023-03-15T13:26:14.040Z,64.20
2023-03-15T13:29:21.204Z,64.01
2023-03-15T13:32:25.592Z,64.01
2023-03-15T13:35:28.472Z,64.17
2023-03-15T13:38:34.290Z,64.21
2023-03-15T13:41:40.049Z,64.12
2023-03-15T13:44:43.121Z,63.89
2023-03-15T13:47:47.857Z,63.99
2023-03-15T13:50:51.336Z,64.36
2023-03-15T13:53:57.207Z,100.00
2023-03-15T13:57:05.083Z,100.00
2023-03-15T14:00:12.064Z,100.00
2023-03-15T14:03:17.841Z,100.00
2023-03-15T14:06:27.014Z,100.00
2023-03-15T14:09:31.175Z,100.00
2023-03-15T14:12:33.756Z,100.00
2023-03-15T14:15:38.025Z,100.00
2023-03-15T14:18:42.674Z,100.00
2023-03-15T14:21:47.763Z,100.00
2023-03-15T14:24:53.439Z,100.00
2023-03-15T14:27:56.135Z,100.00
2023-03-15T14:31:00.145Z,100.00
2023-03-15T14:34:09.844Z,100.00
2023-03-15T14:37:37.712Z,100.00
2023-03-15T14:40:43.087Z,100.00
2023-03-15T14:43:45.740Z,100.00
2023-03-15T14:46:50.536Z,100.00
2023-03-15T14:49:53.404Z,100.00
2023-03-15T14:52:58.295Z,100.00
2023-03-15T14:56:02.673Z,100.00
2023-03-15T14:59:12.398Z,100.00
2023-03-15T15:02:19.088Z,100.00
2023-03-15T15:05:25.400Z,100.00
2023-03-15T15:08:28.496Z,100.00
2023-03-15T15:11:33.059Z,100.00
2023-03-15T15:14:35.641Z,100.00
2023-03-15T15:17:38.175Z,100.00
2023-03-15T15:20:43.030Z,100.00
2023-03-15T15:23:57.333Z,100.00
2023-03-15T15:27:02.268Z,100.00
2023-03-15T15:30:05.956Z,100.00
2023-03-15T15:33:08.622Z,100.00
2023-03-15T15:36:14.591Z,100.00
2023-03-15T15:39:22.882Z,100.00
2023-03-15T15:42:26.685Z,100.00
2023-03-15T15:45:29.375Z,100.00
2023-03-15T15:48:31.774Z,100.00
2023-03-15T15:51:38.004Z,100.00
2023-03-15T15:54:40.551Z,100.00
2023-03-15T15:57:47.912Z,100.00
2023-03-15T16:00:50.893Z,100.00
2023-03-15T16:03:53.619Z,100.00
2023-03-15T16:06:58.644Z,100.00
2023-03-15T16:10:01.458Z,100.00
2023-03-15T16:13:05.656Z,100.00
2023-03-15T16:16:13.442Z,100.00
2023-03-15T16:19:19.125Z,100.00
2023-03-15T16:22:23.819Z,100.00
2023-03-15T16:25:33.777Z,100.00
2023-03-15T16:28:37.735Z,100.00
2023-03-15T16:31:40.379Z,100.00
2023-03-15T16:34:42.968Z,100.00
2023-03-15T16:37:46.908Z,100.00
2023-03-15T16:40:52.928Z,100.00
2023-03-15T16:43:56.898Z,100.00
2023-03-15T16:46:59.449Z,100.00
2023-03-15T16:50:01.961Z,100.00
2023-03-15T16:53:08.004Z,100.00
2023-03-15T16:56:12.773Z,100.00
2023-03-15T16:59:18.814Z,100.00
2023-03-15T17:02:24.515Z,100.00
2023-03-15T17:05:27.700Z,100.00
2023-03-15T17:08:30.511Z,100.00
2023-03-15T17:11:33.963Z,100.00
2023-03-15T17:14:38.918Z,100.00
2023-03-15T17:17:41.322Z,100.00
2023-03-15T17:20:43.887Z,100.00
2023-03-15T17:23:47.755Z,100.00
2023-03-15T17:26:50.460Z,100.00
2023-03-15T17:29:54.639Z,100.00
2023-03-15T17:32:57.541Z,100.00
2023-03-15T17:36:00.329Z,100.00
2023-03-15T17:39:04.358Z,100.00
2023-03-15T17:42:07.282Z,100.00
2023-03-15T17:45:20.724Z,100.00
2023-03-15T17:59:16.076Z,100.00
2023-03-15T18:02:19.198Z,100.00
2023-03-15T18:05:24.370Z,100.00
2023-03-15T19:23:22.053Z,64.29
2023-03-15T19:26:24.785Z,63.95
2023-03-15T19:29:27.294Z,63.84
2023-03-15T19:32:29.986Z,64.03
2023-03-15T19:35:33.699Z,64.00
2023-03-15T19:38:38.772Z,64.03
2023-03-15T19:41:42.791Z,63.85
2023-03-15T19:44:47.415Z,63.79
2023-03-15T19:47:49.955Z,63.56
2023-03-15T19:50:52.609Z,63.92
2023-03-15T19:53:56.648Z,63.71
2023-03-15T19:56:59.788Z,63.63
2023-03-15T20:00:02.446Z,63.60
2023-03-15T20:03:05.645Z,63.64
2023-03-15T20:06:09.420Z,63.75
2023-03-15T20:09:13.439Z,63.50
2023-03-15T20:12:16.476Z,63.76
2023-03-15T20:15:21.084Z,63.59
2023-03-15T20:18:23.825Z,63.53
2023-03-15T20:21:26.750Z,63.90
2023-03-15T20:24:30.787Z,63.79
2023-03-15T20:27:34.133Z,63.61
2023-03-15T20:30:43.278Z,63.59
2023-03-15T20:33:49.936Z,63.63
2023-03-15T20:36:53.250Z,63.63
2023-03-15T20:39:57.658Z,63.27
2023-03-15T20:43:00.269Z,63.66
2023-03-15T20:46:04.285Z,63.59
2023-03-15T20:49:07.267Z,63.66
2023-03-15T20:52:10.052Z,63.57
2023-03-15T20:55:15.177Z,63.44
2023-03-15T20:58:17.937Z,63.58
2023-03-15T21:01:21.115Z,63.59
2023-03-15T21:04:26.103Z,63.43
2023-03-15T21:07:28.614Z,63.63
2023-03-15T21:10:32.669Z,63.38
2023-03-15T21:13:36.060Z,63.41
2023-03-15T21:16:38.696Z,63.58
2023-03-15T21:19:41.847Z,63.41
2023-03-15T21:22:44.288Z,63.21
2023-03-15T21:25:54.217Z,63.33
2023-03-15T21:28:56.644Z,63.30
2023-03-15T21:31:59.730Z,63.23
2023-03-15T21:35:02.545Z,63.60
2023-03-15T21:38:05.094Z,63.31
2023-03-15T21:41:11.302Z,63.51
2023-03-15T21:44:13.812Z,63.47
2023-03-15T21:47:17.963Z,63.28
2023-03-15T21:50:23.282Z,63.50
2023-03-15T21:53:26.129Z,63.33
2023-03-15T21:56:30.082Z,63.22
2023-03-15T21:59:32.604Z,63.45
2023-03-15T22:02:36.017Z,63.57
2023-03-15T22:05:38.494Z,63.46
2023-03-15T22:08:41.870Z,63.24
2023-03-15T22:11:45.940Z,63.49
2023-03-15T22:14:56.852Z,63.46
2023-03-15T22:18:07.235Z,63.53
2023-03-15T22:21:09.916Z,63.49
2023-03-15T22:24:12.662Z,63.48
2023-03-15T22:27:16.665Z,63.54
2023-03-15T22:30:19.360Z,63.29
2023-03-15T22:33:22.667Z,63.46
2023-03-15T22:36:25.349Z,63.49
2023-03-15T22:39:28.024Z,63.46
2023-03-15T22:42:31.955Z,63.26
2023-03-15T22:45:34.509Z,63.27
2023-03-15T22:48:37.123Z,63.35
2023-03-15T22:51:42.314Z,63.43
2023-03-15T22:54:44.877Z,63.46
2023-03-15T22:57:49.151Z,63.33
2023-03-15T23:00:51.792Z,63.33
2023-03-15T23:03:54.466Z,63.31
2023-03-15T23:06:56.945Z,63.36
2023-03-15T23:09:59.692Z,63.43
2023-03-15T23:13:03.704Z,63.28
2023-03-15T23:16:06.827Z,63.23
2023-03-15T23:19:10.296Z,63.32
2023-03-15T23:22:13.050Z,63.36
2023-03-15T23:25:19.570Z,63.43
2023-03-15T23:28:24.395Z,63.13
2023-03-15T23:31:27.113Z,63.15
2023-03-15T23:34:31.018Z,63.10
2023-03-15T23:37:34.452Z,63.55
2023-03-15T23:40:37.410Z,63.32
2023-03-15T23:43:41.572Z,63.09
2023-03-15T23:46:44.214Z,63.00
2023-03-15T23:49:46.716Z,63.06
2023-03-15T23:52:49.428Z,63.46
2023-03-15T23:55:52.575Z,63.14
2023-03-15T23:58:56.572Z,63.15
